Time;durP1;ratioP1;P1;durP2;ratioP2;P2;SDS_P1;SDS_P2;PMS_P1;PMS_P2;Temp;Humidity;BMP_temperature;BMP_pressure;BME280_temperature;BME280_humidity;BME280_pressure;Samples;Min_cycle;Max_cycle;Signal;HPM_P1;HPM_P2
2021/04/04 00:01:50;;;;;;;6.37;1.80;;;4.90;88.70;;;;;;5022751;28;20259;-96
2021/04/04 00:04:16;;;;;;;4.07;2.30;;;4.90;88.80;;;;;;4999839;28;20189;-96
2021/04/04 00:06:42;;;;;;;5.27;1.90;;;4.90;88.80;;;;;;4997541;28;20270;-96
2021/04/04 00:09:07;;;;;;;6.53;2.00;;;4.80;89.10;;;;;;4998050;28;20198;-96
2021/04/04 00:11:33;;;;;;;3.27;2.07;;;4.70;89.00;;;;;;4997969;28;20233;-96
2021/04/04 00:14:00;;;;;;;2.73;1.90;;;4.80;88.70;;;;;;4998034;28;20521;-96
2021/04/04 00:16:25;;;;;;;5.03;1.93;;;4.80;89.00;;;;;;4997484;28;20632;-96
2021/04/04 00:18:51;;;;;;;3.57;1.67;;;4.60;90.00;;;;;;4997317;28;20196;-96
2021/04/04 00:21:17;;;;;;;3.10;1.50;;;4.60;90.10;;;;;;4997514;28;20210;-96
2021/04/04 00:23:43;;;;;;;5.90;2.23;;;4.50;90.00;;;;;;4996839;28;20179;-96
2021/04/04 00:26:08;;;;;;;3.67;1.80;;;4.50;89.90;;;;;;4997024;28;20174;-96
2021/04/04 00:28:34;;;;;;;3.33;1.90;;;4.40;90.20;;;;;;4996863;28;20232;-96
2021/04/04 00:31:00;;;;;;;4.97;2.00;;;4.30;90.50;;;;;;4996935;28;20202;-96
2021/04/04 00:33:26;;;;;;;2.40;1.80;;;4.30;90.30;;;;;;4997595;28;20178;-96
2021/04/04 00:35:52;;;;;;;3.33;1.70;;;4.30;90.30;;;;;;4996654;28;20580;-96
2021/04/04 00:38:18;;;;;;;5.90;2.13;;;4.20;90.30;;;;;;4994653;28;20205;-96
2021/04/04 00:40:44;;;;;;;4.43;2.37;;;4.20;90.50;;;;;;4995451;28;20301;-96
2021/04/04 00:43:10;;;;;;;7.40;1.90;;;4.20;90.60;;;;;;4996293;28;20271;-96
2021/04/04 00:45:38;;;;;;;7.13;2.30;;;4.10;90.70;;;;;;4996419;28;20628;-96
2021/04/04 00:48:05;;;;;;;8.13;3.03;;;4.10;90.70;;;;;;4996631;28;20194;-96
2021/04/04 00:50:35;;;;;;;12.20;2.80;;;4.10;90.70;;;;;;4996099;28;20181;-96
2021/04/04 00:53:02;;;;;;;12.73;3.30;;;4.10;90.90;;;;;;4995860;28;20215;-96
2021/04/04 00:55:28;;;;;;;10.33;3.37;;;4.10;91.10;;;;;;4995647;28;20186;-96
2021/04/04 00:57:54;;;;;;;10.83;3.47;;;4.10;91.30;;;;;;4995667;28;20191;-96
2021/04/04 01:00:23;;;;;;;12.63;3.37;;;4.10;91.90;;;;;;4995497;28;20245;-96
2021/04/04 01:02:50;;;;;;;10.23;3.37;;;3.90;92.10;;;;;;4995258;28;20239;-96
2021/04/04 01:05:22;;;;;;;22.43;8.07;;;3.90;91.80;;;;;;4995498;28;20184;-96
2021/04/04 01:07:48;;;;;;;94.10;41.10;;;3.90;92.10;;;;;;4995182;28;20652;-96
2021/04/04 01:10:14;;;;;;;67.60;29.53;;;3.80;92.90;;;;;;4995226;28;20705;-96
2021/04/04 01:12:53;;;;;;;37.33;16.47;;;3.80;93.10;;;;;;4994731;28;20210;-96
2021/04/04 01:15:28;;;;;;;27.63;10.57;;;3.90;93.00;;;;;;4994560;28;20206;-96
2021/04/04 01:17:56;;;;;;;28.70;12.60;;;3.90;93.20;;;;;;4994355;28;20167;-95
2021/04/04 01:20:31;;;;;;;23.13;9.07;;;3.90;92.60;;;;;;4994385;28;20203;-96
2021/04/04 01:23:16;;;;;;;20.43;6.20;;;3.90;92.90;;;;;;4994897;28;20651;-96
2021/04/04 01:26:04;;;;;;;14.63;5.93;;;3.90;93.20;;;;;;4994516;28;20597;-96
2021/04/04 01:28:38;;;;;;;15.37;5.00;;;4.00;93.00;;;;;;4994421;28;20185;-96
2021/04/04 01:31:06;;;;;;;18.10;4.83;;;3.90;93.00;;;;;;4994346;28;20175;-96
2021/04/04 01:33:34;;;;;;;10.37;4.20;;;4.00;93.10;;;;;;4994768;28;20214;-96
2021/04/04 01:36:01;;;;;;;18.37;4.50;;;4.00;93.10;;;;;;4994531;28;20602;-96
2021/04/04 01:38:31;;;;;;;20.23;4.30;;;4.00;93.40;;;;;;4994787;28;20275;-96
2021/04/04 01:41:27;;;;;;;23.33;4.80;;;3.90;94.70;;;;;;4994227;28;20291;-96
2021/04/04 01:44:03;;;;;;;20.23;4.87;;;3.80;94.70;;;;;;4994490;28;20287;-96
2021/04/04 01:46:31;;;;;;;16.93;4.67;;;3.70;95.50;;;;;;4971262;28;20190;-96
2021/04/04 01:48:58;;;;;;;25.70;4.97;;;3.70;95.10;;;;;;4973684;28;20280;-96
2021/04/04 01:51:25;;;;;;;18.60;5.10;;;3.70;96.40;;;;;;4977270;28;20184;-96
2021/04/04 01:53:52;;;;;;;28.73;5.37;;;3.60;96.70;;;;;;4979291;28;20202;-95
2021/04/04 01:56:18;;;;;;;17.97;4.90;;;3.50;96.70;;;;;;4978558;28;20190;-96
2021/04/04 01:58:45;;;;;;;22.77;5.03;;;3.60;96.10;;;;;;4978814;28;20185;-96
2021/04/04 02:01:12;;;;;;;18.23;4.57;;;3.60;96.10;;;;;;4981452;28;20250;-96
2021/04/04 02:03:39;;;;;;;16.53;4.13;;;3.70;95.70;;;;;;4998144;28;20215;-96
2021/04/04 02:06:06;;;;;;;17.33;4.93;;;3.70;96.60;;;;;;4998109;28;20172;-96
2021/04/04 02:08:32;;;;;;;14.80;4.30;;;3.70;95.90;;;;;;4998334;28;20207;-96
2021/04/04 02:11:00;;;;;;;21.10;4.67;;;3.70;95.40;;;;;;4998396;28;20189;-96
2021/04/04 02:13:27;;;;;;;28.40;5.40;;;3.80;95.70;;;;;;4998496;28;20210;-96
2021/04/04 02:15:59;;;;;;;15.97;4.37;;;3.80;95.50;;;;;;4998604;28;20178;-96
2021/04/04 02:18:25;;;;;;;19.10;4.70;;;3.80;95.30;;;;;;4997966;28;20179;-96
2021/04/04 02:20:54;;;;;;;19.00;5.00;;;3.80;95.00;;;;;;4998306;28;20650;-96
2021/04/04 02:23:22;;;;;;;17.40;4.30;;;3.80;95.20;;;;;;4999256;28;20185;-96
2021/04/04 02:25:51;;;;;;;14.73;5.00;;;3.90;94.70;;;;;;4998884;28;20211;-96
2021/04/04 02:28:17;;;;;;;13.07;4.07;;;3.90;94.80;;;;;;4998675;28;20192;-96
2021/04/04 02:30:42;;;;;;;18.83;4.53;;;3.90;94.40;;;;;;4998741;28;20191;-96
2021/04/04 02:33:15;;;;;;;20.03;4.60;;;3.90;94.40;;;;;;4979201;28;20616;-96
2021/04/04 02:35:44;;;;;;;18.90;4.90;;;3.80;94.70;;;;;;4979028;28;20187;-96
2021/04/04 02:38:14;;;;;;;24.97;5.40;;;3.90;94.40;;;;;;4979583;28;20661;-96
2021/04/04 02:40:44;;;;;;;21.10;4.73;;;3.70;94.50;;;;;;4979732;28;20216;-96
2021/04/04 02:43:14;;;;;;;21.17;4.90;;;3.60;94.60;;;;;;4979939;28;20651;-96
2021/04/04 02:45:43;;;;;;;13.23;4.43;;;3.60;94.60;;;;;;4979950;28;20181;-96
2021/04/04 02:48:15;;;;;;;14.00;4.30;;;3.50;95.60;;;;;;4981380;28;20180;-96
2021/04/04 02:50:41;;;;;;;16.40;4.77;;;3.40;96.20;;;;;;4981066;28;20200;-96
2021/04/04 02:53:08;;;;;;;17.67;4.13;;;3.60;95.20;;;;;;4981178;28;20175;-96
2021/04/04 02:55:37;;;;;;;19.97;4.10;;;3.50;95.90;;;;;;4980878;28;20230;-96
2021/04/04 02:58:05;;;;;;;20.13;5.17;;;3.40;95.50;;;;;;4979170;28;20181;-96
2021/04/04 03:00:32;;;;;;;16.53;4.40;;;3.40;95.40;;;;;;4977314;28;20212;-96
2021/04/04 03:03:01;;;;;;;21.83;4.40;;;3.50;95.60;;;;;;4995809;28;20229;-96
2021/04/04 03:05:27;;;;;;;16.37;4.37;;;3.50;95.40;;;;;;4998277;28;20181;-96
2021/04/04 03:07:56;;;;;;;19.97;5.03;;;3.40;95.40;;;;;;4998136;28;20169;-96
2021/04/04 03:10:22;;;;;;;15.03;4.07;;;3.50;95.70;;;;;;4997540;28;20184;-96
2021/04/04 03:12:50;;;;;;;25.97;5.03;;;3.40;95.70;;;;;;4997718;28;20190;-96
2021/04/04 03:15:18;;;;;;;26.50;4.90;;;3.50;95.60;;;;;;4997135;28;20176;-96
2021/04/04 03:17:46;;;;;;;18.17;4.50;;;3.50;95.50;;;;;;4997346;28;20180;-96
2021/04/04 03:20:14;;;;;;;19.03;4.40;;;3.50;95.60;;;;;;4997267;28;20256;-96
2021/04/04 03:22:44;;;;;;;20.23;4.20;;;3.50;95.60;;;;;;4997646;28;20250;-96
2021/04/04 03:25:12;;;;;;;20.37;4.87;;;3.50;95.60;;;;;;4997159;28;20180;-96
2021/04/04 03:27:42;;;;;;;12.07;3.80;;;3.50;95.70;;;;;;4997600;28;20534;-96
2021/04/04 03:30:09;;;;;;;18.00;4.50;;;3.50;95.60;;;;;;4998232;28;20182;-96
2021/04/04 03:32:36;;;;;;;16.40;4.67;;;3.50;95.60;;;;;;4982936;28;20192;-96
2021/04/04 03:35:04;;;;;;;19.17;4.53;;;3.50;95.60;;;;;;4978336;28;20208;-96
2021/04/04 03:37:31;;;;;;;19.13;4.73;;;3.50;95.60;;;;;;4977743;28;20191;-96
2021/04/04 03:39:57;;;;;;;16.40;4.43;;;3.50;95.80;;;;;;4977233;28;20182;-95
2021/04/04 03:42:28;;;;;;;18.20;4.30;;;3.50;95.50;;;;;;4977404;28;20194;-96
2021/04/04 03:44:57;;;;;;;20.63;4.60;;;3.50;95.70;;;;;;4978168;28;20176;-96
2021/04/04 03:47:23;;;;;;;12.67;3.90;;;3.50;95.70;;;;;;4977587;28;20177;-96
2021/04/04 03:49:50;;;;;;;16.53;4.80;;;3.50;95.80;;;;;;4977628;28;20615;-96
2021/04/04 03:52:18;;;;;;;17.50;4.47;;;3.40;95.80;;;;;;4976634;28;20217;-96
2021/04/04 03:54:45;;;;;;;18.67;4.27;;;3.40;95.80;;;;;;4977265;28;20222;-96
2021/04/04 03:57:14;;;;;;;22.30;4.90;;;3.40;95.90;;;;;;4978650;28;20207;-96
2021/04/04 03:59:41;;;;;;;20.67;4.37;;;3.40;96.20;;;;;;4961535;28;20619;-96
2021/04/04 04:02:08;;;;;;;18.07;4.43;;;3.40;96.10;;;;;;4977573;28;20232;-96
2021/04/04 04:04:35;;;;;;;20.83;4.80;;;3.40;96.10;;;;;;4977016;28;20201;-96
2021/04/04 04:07:03;;;;;;;19.27;5.07;;;3.40;96.10;;;;;;4977443;28;20257;-96
2021/04/04 04:09:29;;;;;;;20.83;5.33;;;3.40;95.90;;;;;;4977266;28;20186;-96
2021/04/04 04:11:55;;;;;;;24.80;4.60;;;3.40;95.90;;;;;;4977639;28;20179;-96
2021/04/04 04:14:23;;;;;;;17.30;4.70;;;3.40;95.70;;;;;;4977008;28;20213;-96
2021/04/04 04:16:49;;;;;;;20.13;5.20;;;3.40;95.80;;;;;;4978336;28;20180;-96
2021/04/04 04:19:18;;;;;;;13.03;3.90;;;3.40;95.80;;;;;;4978347;28;20225;-96
2021/04/04 04:21:45;;;;;;;14.23;4.00;;;3.40;95.70;;;;;;4977780;28;20217;-96
2021/04/04 04:24:15;;;;;;;19.37;4.47;;;3.40;96.00;;;;;;4979813;28;20182;-96
2021/04/04 04:26:43;;;;;;;16.30;4.30;;;3.30;95.80;;;;;;4980307;28;20222;-96
2021/04/04 04:29:14;;;;;;;13.73;4.07;;;3.30;95.80;;;;;;4979982;28;20183;-96
2021/04/04 04:31:46;;;;;;;17.37;4.83;;;3.20;96.00;;;;;;4986753;28;20633;-96
2021/04/04 04:34:13;;;;;;;18.00;4.77;;;3.20;96.10;;;;;;4998611;28;20204;-96
2021/04/04 04:36:41;;;;;;;19.00;5.30;;;3.20;96.00;;;;;;4999940;28;20194;-96
2021/04/04 04:39:09;;;;;;;12.37;3.93;;;3.20;96.30;;;;;;4998908;28;20512;-96
2021/04/04 04:41:42;;;;;;;19.87;4.60;;;3.20;96.00;;;;;;5000422;28;20224;-96
2021/04/04 04:44:08;;;;;;;17.00;4.30;;;3.20;96.00;;;;;;4979716;28;20293;-96
2021/04/04 04:46:36;;;;;;;19.70;5.30;;;3.20;95.90;;;;;;4975893;28;20197;-96
2021/04/04 04:49:02;;;;;;;16.70;4.83;;;3.10;96.50;;;;;;4975969;28;20181;-96
2021/04/04 04:51:29;;;;;;;27.80;6.03;;;3.10;96.40;;;;;;4976193;28;20264;-96
2021/04/04 04:53:56;;;;;;;11.40;4.47;;;3.10;96.40;;;;;;4975976;28;20503;-96
2021/04/04 04:56:22;;;;;;;17.23;4.90;;;3.10;96.40;;;;;;4975502;28;20177;-96
2021/04/04 04:58:48;;;;;;;21.23;5.23;;;3.10;96.50;;;;;;4975594;28;20214;-96
2021/04/04 05:01:20;;;;;;;18.60;5.33;;;3.20;96.50;;;;;;4975599;28;20292;-96
2021/04/04 05:03:47;;;;;;;22.30;6.03;;;3.20;96.40;;;;;;4976341;28;20504;-96
2021/04/04 05:06:14;;;;;;;21.60;5.40;;;3.30;96.50;;;;;;4975721;28;20188;-96
2021/04/04 05:08:44;;;;;;;15.50;5.17;;;3.30;96.50;;;;;;4976323;28;20191;-96
2021/04/04 05:11:13;;;;;;;21.03;5.23;;;3.40;96.70;;;;;;4976052;28;20204;-96
2021/04/04 05:13:40;;;;;;;18.77;5.10;;;3.40;96.50;;;;;;4976302;28;20217;-96
2021/04/04 05:16:16;;;;;;;16.57;5.43;;;3.50;96.60;;;;;;4975675;28;20176;-96
2021/04/04 05:18:52;;;;;;;20.90;5.83;;;3.50;96.80;;;;;;4976147;28;20528;-96
2021/04/04 05:21:22;;;;;;;16.93;5.27;;;3.60;97.00;;;;;;4976306;28;20251;-96
2021/04/04 05:23:48;;;;;;;15.57;5.17;;;3.70;97.20;;;;;;4975628;28;20177;-96
2021/04/04 05:26:15;;;;;;;19.40;5.97;;;3.70;97.10;;;;;;4975546;28;20184;-95
2021/04/04 05:28:41;;;;;;;21.37;6.03;;;3.70;97.00;;;;;;4975868;28;20198;-96
2021/04/04 05:31:07;;;;;;;23.70;4.97;;;3.80;97.20;;;;;;4976116;28;20270;-96
2021/04/04 05:33:33;;;;;;;16.27;4.90;;;3.90;97.20;;;;;;4995174;28;20214;-96
2021/04/04 05:36:03;;;;;;;18.37;4.80;;;4.00;97.50;;;;;;4994882;28;20187;-96
2021/04/04 05:38:29;;;;;;;21.90;5.17;;;4.00;97.30;;;;;;4995829;28;20262;-96
2021/04/04 05:41:02;;;;;;;20.07;5.27;;;4.00;97.80;;;;;;4995174;28;20735;-96
2021/04/04 05:43:34;;;;;;;20.30;5.87;;;4.10;97.50;;;;;;4995096;28;20275;-96
2021/04/04 05:46:25;;;;;;;16.47;5.40;;;4.20;97.80;;;;;;4994952;28;20237;-96
2021/04/04 05:49:24;;;;;;;17.70;5.57;;;4.20;97.70;;;;;;4994393;28;20192;-95
2021/04/04 05:52:18;;;;;;;17.87;4.27;;;4.30;97.90;;;;;;4979824;28;20191;-96
2021/04/04 05:55:06;;;;;;;20.53;5.00;;;4.40;97.30;;;;;;4994848;28;20180;-96
2021/04/04 05:57:40;;;;;;;16.60;5.20;;;4.40;97.70;;;;;;4995215;28;20195;-96
2021/04/04 06:00:10;;;;;;;24.47;5.50;;;4.50;97.70;;;;;;4994964;28;20175;-96
2021/04/04 06:03:12;;;;;;;18.23;5.00;;;4.50;97.90;;;;;;4994379;28;20242;-96
2021/04/04 06:06:14;;;;;;;13.83;4.80;;;4.60;98.30;;;;;;4994327;28;20183;-96
2021/04/04 06:09:05;;;;;;;17.17;4.50;;;4.60;97.50;;;;;;4994421;28;20310;-96
2021/04/04 06:12:05;;;;;;;23.03;5.13;;;4.70;97.40;;;;;;4994463;28;20203;-96
2021/04/04 06:14:52;;;;;;;20.13;4.73;;;4.80;98.10;;;;;;4994191;28;20180;-96
2021/04/04 06:17:37;;;;;;;22.87;5.00;;;4.80;97.60;;;;;;4994177;28;20172;-96
2021/04/04 06:20:10;;;;;;;26.83;5.13;;;4.90;97.50;;;;;;4994084;28;20203;-96
2021/04/04 06:22:52;;;;;;;18.00;4.53;;;4.90;97.10;;;;;;4994440;28;20195;-95
2021/04/04 06:25:38;;;;;;;17.13;4.63;;;5.00;97.20;;;;;;4994442;28;20183;-96
2021/04/04 06:28:23;;;;;;;19.43;4.80;;;5.00;97.50;;;;;;4994647;28;20168;-96
2021/04/04 06:31:08;;;;;;;19.60;4.73;;;5.00;97.20;;;;;;4994236;28;20598;-95
2021/04/04 06:33:42;;;;;;;23.10;4.73;;;5.10;97.80;;;;;;4994633;28;20573;-96
2021/04/04 06:36:33;;;;;;;16.67;4.30;;;5.20;97.60;;;;;;4998462;28;20229;-96
2021/04/04 06:39:36;;;;;;;18.53;5.00;;;5.20;97.00;;;;;;4998139;28;20164;-96
2021/04/04 06:42:17;;;;;;;17.93;4.50;;;5.30;97.10;;;;;;4998343;28;20265;-96
2021/04/04 06:45:12;;;;;;;21.83;4.40;;;5.30;96.70;;;;;;4997698;28;20194;-96
2021/04/04 06:48:12;;;;;;;16.27;4.33;;;5.30;96.60;;;;;;4997557;28;20564;-96
2021/04/04 06:50:48;;;;;;;21.97;4.73;;;5.30;96.60;;;;;;4999409;28;20681;-96
2021/04/04 06:53:52;;;;;;;17.60;3.67;;;5.40;96.40;;;;;;4999197;28;20175;-96
2021/04/04 06:56:23;;;;;;;14.40;4.70;;;5.40;96.00;;;;;;4999250;28;20240;-96
2021/04/04 06:58:51;;;;;;;16.03;4.33;;;5.40;96.50;;;;;;4997991;28;20641;-96
2021/04/04 07:01:35;;;;;;;14.20;4.27;;;5.50;96.50;;;;;;4998471;28;20251;-96
2021/04/04 07:04:14;;;;;;;12.33;3.80;;;5.50;96.30;;;;;;4999484;28;20188;-96
2021/04/04 07:07:02;;;;;;;17.37;4.37;;;5.60;95.50;;;;;;4999826;28;20545;-96
2021/04/04 07:10:06;;;;;;;16.63;4.70;;;5.60;95.60;;;;;;5000637;28;20185;-96
2021/04/04 07:12:56;;;;;;;17.37;4.30;;;5.60;95.50;;;;;;4999074;28;20270;-96
2021/04/04 07:15:40;;;;;;;11.80;4.10;;;5.70;95.70;;;;;;4998945;28;20237;-96
2021/04/04 07:18:27;;;;;;;19.63;4.57;;;5.60;95.70;;;;;;4998282;28;20176;-96
2021/04/04 07:21:09;;;;;;;23.97;4.27;;;5.80;95.90;;;;;;4997920;28;20306;-96
2021/04/04 07:24:03;;;;;;;16.43;4.50;;;5.80;95.10;;;;;;4998824;28;20176;-96
2021/04/04 07:27:02;;;;;;;14.80;4.70;;;5.80;95.10;;;;;;4998826;28;20195;-96
2021/04/04 07:29:55;;;;;;;17.57;4.77;;;5.80;95.10;;;;;;5000256;28;20186;-96
2021/04/04 07:32:48;;;;;;;20.77;4.17;;;5.90;94.30;;;;;;4998426;28;20188;-96
2021/04/04 07:35:32;;;;;;;13.67;4.07;;;5.90;94.50;;;;;;4999671;28;20183;-96
2021/04/04 07:38:06;;;;;;;19.63;5.30;;;6.00;93.70;;;;;;4999133;28;20176;-96
2021/04/04 07:40:49;;;;;;;13.13;4.80;;;6.10;94.10;;;;;;4999318;28;20214;-96
2021/04/04 07:43:24;;;;;;;15.37;4.43;;;6.20;92.20;;;;;;5000083;28;20183;-96
2021/04/04 07:45:59;;;;;;;17.50;5.03;;;6.20;92.70;;;;;;4998533;28;20187;-96
2021/04/04 07:49:07;;;;;;;21.97;6.00;;;6.20;92.20;;;;;;4997169;28;20178;-93
2021/04/04 07:51:37;;;;;;;18.23;5.10;;;6.20;91.80;;;;;;4959659;28;20285;-93
2021/04/04 07:54:06;;;;;;;15.97;4.20;;;6.20;91.90;;;;;;4959469;28;20178;-94
2021/04/04 07:56:45;;;;;;;19.27;6.37;;;6.20;91.80;;;;;;4959436;28;20690;-94
2021/04/04 07:59:41;;;;;;;19.07;5.17;;;6.10;91.80;;;;;;4959931;28;20189;-94
2021/04/04 08:02:20;;;;;;;14.07;4.67;;;6.10;91.20;;;;;;4981741;28;20242;-92
2021/04/04 08:05:02;;;;;;;13.70;4.40;;;6.10;91.00;;;;;;4998270;28;20175;-93
2021/04/04 08:07:40;;;;;;;15.47;4.03;;;6.10;90.70;;;;;;4998626;28;20551;-93
2021/04/04 08:10:25;;;;;;;12.23;4.07;;;6.20;89.90;;;;;;4998426;28;20181;-95
2021/04/04 08:13:20;;;;;;;13.50;3.50;;;6.20;90.10;;;;;;4998227;28;20556;-92
2021/04/04 08:16:05;;;;;;;9.63;3.03;;;6.10;90.10;;;;;;4997929;28;20178;-94
2021/04/04 08:18:31;;;;;;;14.67;3.77;;;6.20;89.40;;;;;;4997941;28;20189;-96
2021/04/04 08:21:01;;;;;;;13.63;3.20;;;6.20;90.10;;;;;;4997962;28;20249;-93
2021/04/04 08:23:29;;;;;;;11.80;3.07;;;6.20;89.50;;;;;;5018728;28;20199;-95
2021/04/04 08:26:05;;;;;;;13.87;3.17;;;6.20;89.90;;;;;;5018662;28;20182;-96
2021/04/04 08:28:41;;;;;;;14.57;3.93;;;6.20;90.40;;;;;;5035179;28;20261;-95
2021/04/04 08:31:31;;;;;;;14.07;3.37;;;6.20;90.20;;;;;;5035436;28;20171;-94
2021/04/04 08:34:22;;;;;;;11.83;2.63;;;6.20;90.60;;;;;;5034563;28;20228;-95
2021/04/04 08:37:17;;;;;;;13.90;2.57;;;6.20;90.60;;;;;;5007762;28;20183;-96
2021/04/04 08:39:53;;;;;;;12.57;2.70;;;6.40;90.50;;;;;;5018272;28;20270;-96
2021/04/04 08:42:20;;;;;;;9.50;2.50;;;6.50;90.10;;;;;;5034799;28;20217;-95
2021/04/04 08:44:54;;;;;;;11.57;2.93;;;6.60;90.00;;;;;;5036516;28;20166;-93
2021/04/04 08:47:35;;;;;;;10.13;2.43;;;6.60;89.80;;;;;;5034639;28;20170;-94
2021/04/04 08:50:07;;;;;;;11.37;2.73;;;6.60;88.80;;;;;;5035733;28;20166;-95
2021/04/04 08:52:40;;;;;;;14.63;2.40;;;6.70;89.90;;;;;;5034771;28;20177;-94
2021/04/04 08:55:07;;;;;;;15.33;2.73;;;6.70;88.90;;;;;;5034696;28;20643;-92
2021/04/04 08:57:33;;;;;;;10.23;2.67;;;6.80;88.60;;;;;;5033749;28;20175;-95
2021/04/04 09:00:03;;;;;;;14.13;3.17;;;6.90;88.40;;;;;;5017637;28;20174;-93
2021/04/04 09:02:33;;;;;;;16.03;2.97;;;6.90;88.30;;;;;;5034648;28;20237;-96
2021/04/04 09:05:08;;;;;;;10.70;2.37;;;6.80;88.30;;;;;;5034481;28;20178;-93
2021/04/04 09:07:40;;;;;;;6.57;2.23;;;6.70;88.70;;;;;;5034135;28;20185;-93
2021/04/04 09:10:10;;;;;;;11.77;2.30;;;6.70;89.20;;;;;;5034357;28;20236;-96
2021/04/04 09:12:37;;;;;;;14.60;2.63;;;6.80;88.40;;;;;;5034505;28;20625;-93
2021/04/04 09:15:11;;;;;;;12.30;2.40;;;6.80;87.30;;;;;;5035078;28;20179;-91
2021/04/04 09:17:38;;;;;;;10.83;2.60;;;6.80;87.40;;;;;;5034681;28;20210;-96
2021/04/04 09:20:08;;;;;;;14.67;3.40;;;6.80;86.90;;;;;;5034300;28;20178;-93
2021/04/04 09:22:36;;;;;;;16.17;2.83;;;6.90;86.00;;;;;;5034333;28;20202;-95
2021/04/04 09:25:08;;;;;;;15.63;3.20;;;6.90;87.90;;;;;;5034087;28;20175;-94
2021/04/04 09:27:42;;;;;;;11.37;2.97;;;6.90;85.60;;;;;;5034011;28;20512;-93
2021/04/04 09:30:12;;;;;;;19.47;2.77;;;6.80;87.10;;;;;;5034328;28;20171;-93
2021/04/04 09:32:43;;;;;;;8.33;2.60;;;6.80;87.00;;;;;;5003635;28;20194;-95
2021/04/04 09:35:17;;;;;;;18.47;3.40;;;6.80;87.70;;;;;;4997545;28;20186;-94
2021/04/04 09:37:47;;;;;;;20.33;3.13;;;6.80;89.30;;;;;;4997926;28;20610;-95
2021/04/04 09:40:15;;;;;;;15.90;3.23;;;6.80;89.60;;;;;;4997885;28;20712;-95
2021/04/04 09:42:41;;;;;;;11.90;2.60;;;6.80;89.10;;;;;;4997693;28;20225;-94
2021/04/04 09:45:13;;;;;;;14.57;3.23;;;6.90;89.10;;;;;;4998005;28;20183;-95
2021/04/04 09:47:39;;;;;;;16.73;3.50;;;7.00;88.50;;;;;;5013894;28;20660;-93
2021/04/04 09:50:23;;;;;;;11.57;3.10;;;7.10;88.50;;;;;;4997409;28;20184;-94
2021/04/04 09:52:50;;;;;;;10.13;2.67;;;7.10;87.20;;;;;;5013638;28;20237;-93
2021/04/04 09:55:18;;;;;;;10.47;2.83;;;7.30;88.90;;;;;;4997942;28;20191;-93
2021/04/04 09:57:50;;;;;;;10.13;2.70;;;7.30;88.20;;;;;;4998224;28;20207;-95
2021/04/04 10:00:26;;;;;;;10.43;2.77;;;7.30;86.20;;;;;;4997414;28;20187;-94
2021/04/04 10:02:55;;;;;;;9.90;2.33;;;7.10;86.10;;;;;;4976640;28;20611;-93
2021/04/04 10:05:37;;;;;;;15.77;2.80;;;7.10;86.30;;;;;;4974776;28;20181;-93
2021/04/04 10:08:14;;;;;;;11.60;2.67;;;7.10;86.50;;;;;;4974896;28;20180;-92
2021/04/04 10:10:48;;;;;;;9.07;2.50;;;7.10;87.00;;;;;;4977689;28;20180;-95
2021/04/04 10:13:15;;;;;;;11.30;2.43;;;7.10;88.10;;;;;;4978583;28;20264;-94
2021/04/04 10:15:51;;;;;;;9.90;2.70;;;7.10;88.20;;;;;;4978516;28;20203;-94
2021/04/04 10:18:20;;;;;;;16.73;3.30;;;7.20;87.80;;;;;;4978217;28;20623;-93
2021/04/04 10:20:56;;;;;;;11.30;3.03;;;7.10;88.30;;;;;;4978517;28;20219;-94
2021/04/04 10:23:33;;;;;;;8.50;2.70;;;7.20;87.80;;;;;;4979640;28;20207;-96
2021/04/04 10:25:59;;;;;;;9.67;2.63;;;7.20;86.80;;;;;;4978727;28;20184;-96
2021/04/04 10:28:46;;;;;;;10.93;3.20;;;7.20;85.80;;;;;;4978304;28;20687;-96
2021/04/04 10:31:13;;;;;;;9.03;3.07;;;7.10;86.70;;;;;;4980458;28;20188;-94
2021/04/04 10:33:38;;;;;;;14.10;3.53;;;7.10;86.10;;;;;;4997858;28;20183;-96
2021/04/04 10:36:17;;;;;;;11.17;2.63;;;7.10;87.10;;;;;;4998591;28;20215;-96
2021/04/04 10:38:44;;;;;;;12.17;3.13;;;7.10;88.70;;;;;;4997505;28;20184;-96
2021/04/04 10:41:10;;;;;;;11.63;2.47;;;7.20;87.30;;;;;;4996277;28;20212;-95
2021/04/04 10:43:41;;;;;;;8.93;2.90;;;7.20;87.40;;;;;;4978134;28;20184;-95
2021/04/04 10:46:12;;;;;;;8.40;2.40;;;7.20;88.20;;;;;;4977255;28;20181;-95
2021/04/04 10:48:43;;;;;;;6.47;2.60;;;7.30;87.10;;;;;;4977714;28;20184;-95
2021/04/04 10:51:11;;;;;;;7.97;2.47;;;7.20;86.90;;;;;;4977727;28;20172;-96
2021/04/04 10:53:38;;;;;;;9.83;2.33;;;7.20;87.30;;;;;;4978320;28;20181;-93
2021/04/04 10:56:05;;;;;;;6.40;1.90;;;7.30;87.40;;;;;;4977744;28;20247;-93
2021/04/04 10:58:31;;;;;;;8.97;2.30;;;7.30;88.60;;;;;;4977543;28;20191;-94
2021/04/04 11:00:59;;;;;;;6.00;2.00;;;7.40;87.90;;;;;;4981178;28;20219;-93
2021/04/04 11:03:26;;;;;;;4.97;1.77;;;7.50;87.60;;;;;;5036153;28;20285;-94
2021/04/04 11:05:52;;;;;;;5.90;2.00;;;7.50;86.70;;;;;;5036385;28;20182;-93
2021/04/04 11:08:19;;;;;;;5.37;1.80;;;7.50;88.40;;;;;;5036471;28;20175;-93
2021/04/04 11:10:45;;;;;;;5.10;1.90;;;7.50;87.60;;;;;;5036423;28;20182;-93
2021/04/04 11:13:14;;;;;;;9.43;2.20;;;7.60;88.00;;;;;;5036370;28;20183;-94
2021/04/04 11:15:43;;;;;;;5.67;2.07;;;7.50;86.60;;;;;;5036008;28;20178;-94
2021/04/04 11:18:23;;;;;;;7.73;2.43;;;7.50;88.90;;;;;;5035918;28;20551;-94
2021/04/04 11:20:54;;;;;;;8.60;2.23;;;7.50;88.80;;;;;;5018863;28;20305;-93
2021/04/04 11:23:20;;;;;;;7.63;2.73;;;7.50;89.00;;;;;;5036390;28;20183;-94
2021/04/04 11:25:46;;;;;;;5.97;2.20;;;7.50;89.00;;;;;;5036022;28;20236;-93
2021/04/04 11:28:24;;;;;;;6.77;3.03;;;7.60;87.90;;;;;;5036072;28;20174;-92
2021/04/04 11:30:53;;;;;;;7.23;2.53;;;7.70;89.20;;;;;;5036340;28;20257;-92
2021/04/04 11:33:26;;;;;;;7.23;2.20;;;7.70;89.10;;;;;;5036335;28;20183;-93
2021/04/04 11:36:08;;;;;;;3.87;2.30;;;7.80;88.10;;;;;;5035889;28;20228;-92
2021/04/04 11:38:41;;;;;;;6.27;2.40;;;7.80;88.20;;;;;;5035898;28;20209;-94
2021/04/04 11:41:20;;;;;;;6.07;2.63;;;7.80;88.70;;;;;;5019250;28;20203;-92
2021/04/04 11:43:52;;;;;;;4.90;2.67;;;7.90;88.80;;;;;;5035741;28;20186;-93
2021/04/04 11:46:44;;;;;;;5.27;2.13;;;7.80;89.30;;;;;;5035665;28;20182;-94
2021/04/04 11:49:46;;;;;;;4.23;2.10;;;7.80;89.70;;;;;;5035210;28;20185;-94
2021/04/04 11:52:12;;;;;;;4.23;2.03;;;7.60;90.20;;;;;;4998172;28;20197;-94
2021/04/04 11:54:49;;;;;;;5.67;2.10;;;7.50;90.30;;;;;;5019313;28;20175;-92
2021/04/04 11:57:20;;;;;;;5.90;1.87;;;7.50;90.40;;;;;;5018534;28;20210;-94
2021/04/04 11:59:51;;;;;;;5.13;1.80;;;7.50;90.80;;;;;;5035442;28;20613;-94
2021/04/04 12:02:19;;;;;;;8.23;2.03;;;7.50;91.20;;;;;;5018620;28;20292;-96
2021/04/04 12:05:07;;;;;;;4.40;2.00;;;7.50;90.90;;;;;;5035245;28;20551;-95
2021/04/04 12:07:59;;;;;;;2.83;1.90;;;7.40;91.20;;;;;;5019118;28;20175;-96
2021/04/04 12:10:29;;;;;;;3.87;1.70;;;7.40;91.10;;;;;;5018454;28;20175;-96
2021/04/04 12:12:56;;;;;;;4.07;1.80;;;7.50;91.00;;;;;;5035221;28;20175;-96
2021/04/04 12:15:24;;;;;;;5.67;2.07;;;7.50;91.00;;;;;;5018547;28;20178;-95
2021/04/04 12:17:52;;;;;;;4.23;2.10;;;7.50;90.80;;;;;;5035413;28;20178;-96
2021/04/04 12:20:34;;;;;;;5.03;2.00;;;7.50;91.00;;;;;;5034629;28;20266;-96
2021/04/04 12:23:02;;;;;;;3.20;2.27;;;7.40;91.60;;;;;;5035155;28;20186;-96
2021/04/04 12:25:29;;;;;;;5.00;2.20;;;7.30;92.30;;;;;;5034918;28;20182;-93
2021/04/04 12:27:57;;;;;;;4.17;2.30;;;7.20;92.20;;;;;;5035204;28;20181;-96
2021/04/04 12:30:32;;;;;;;6.43;2.40;;;7.10;92.40;;;;;;5034929;28;20182;-96
2021/04/04 12:33:07;;;;;;;5.17;2.37;;;7.10;92.50;;;;;;5034775;28;20189;-95
2021/04/04 12:35:39;;;;;;;4.33;2.27;;;7.10;92.50;;;;;;5034482;28;20212;-96
2021/04/04 12:38:05;;;;;;;4.17;2.20;;;7.00;93.20;;;;;;5034858;28;20166;-96
2021/04/04 12:40:31;;;;;;;4.17;2.20;;;7.00;93.30;;;;;;5034712;28;20208;-95
2021/04/04 12:43:00;;;;;;;6.63;2.70;;;7.10;93.20;;;;;;5035013;28;20175;-96
2021/04/04 12:45:31;;;;;;;6.40;2.87;;;7.20;93.20;;;;;;5034981;28;20170;-95
2021/04/04 12:47:57;;;;;;;4.53;2.23;;;7.20;93.10;;;;;;5035929;28;20624;-95
2021/04/04 12:50:23;;;;;;;6.07;3.07;;;7.30;92.60;;;;;;5033119;28;20179;-95
2021/04/04 12:52:51;;;;;;;6.17;2.67;;;7.30;92.90;;;;;;5035863;28;20737;-96
2021/04/04 12:55:24;;;;;;;5.30;2.73;;;7.30;92.60;;;;;;5034711;28;20178;-96
2021/04/04 12:57:57;;;;;;;4.67;2.70;;;7.30;92.60;;;;;;5035745;28;20178;-96
2021/04/04 13:00:29;;;;;;;8.37;2.60;;;7.30;92.50;;;;;;5018073;28;20205;-96
2021/04/04 13:02:58;;;;;;;6.80;2.97;;;7.30;93.10;;;;;;5034607;28;20230;-96
2021/04/04 13:05:26;;;;;;;5.27;2.40;;;7.20;92.80;;;;;;5018360;28;20177;-96
2021/04/04 13:07:52;;;;;;;6.47;3.00;;;7.20;93.10;;;;;;5034662;28;20191;-93
2021/04/04 13:10:19;;;;;;;5.43;2.60;;;7.20;93.60;;;;;;5035775;28;20178;-96
2021/04/04 13:12:45;;;;;;;9.80;2.80;;;7.10;93.40;;;;;;5034663;28;20178;-96
2021/04/04 13:15:30;;;;;;;6.00;3.03;;;7.00;93.70;;;;;;5034926;28;20174;-95
2021/04/04 13:17:56;;;;;;;9.27;3.07;;;7.00;94.10;;;;;;5034309;28;20206;-96
2021/04/04 13:20:24;;;;;;;6.27;3.13;;;7.00;94.00;;;;;;5033514;28;20256;-94